sensor_id;sensor_type;location;lat;lon;timestamp;P1;durP1;ratioP1;P2;durP2;ratioP2
49842;SDS011;55559;48.898;9.184;2023-12-28T00:01:43;4.70;;;0.60;;
49842;SDS011;55559;48.898;9.184;2023-12-28T00:04:10;3.97;;;1.10;;
49842;SDS011;55559;48.898;9.184;2023-12-28T00:06:38;3.13;;;0.95;;
49842;SDS011;55559;48.898;9.184;2023-12-28T00:09:07;4.70;;;1.10;;
49842;SDS011;55559;48.898;9.184;2023-12-28T00:11:34;2.78;;;0.90;;
49842;SDS011;55559;48.898;9.184;2023-12-28T00:14:01;5.03;;;1.02;;
49842;SDS011;55559;48.898;9.184;2023-12-28T00:16:28;4.07;;;0.60;;
49842;SDS011;55559;48.898;9.184;2023-12-28T00:18:58;2.42;;;0.60;;
49842;SDS011;55559;48.898;9.184;2023-12-28T00:21:27;1.10;;;0.40;;
49842;SDS011;55559;48.898;9.184;2023-12-28T00:23:56;2.28;;;0.55;;
49842;SDS011;55559;48.898;9.184;2023-12-28T00:26:23;1.67;;;0.50;;
49842;SDS011;55559;48.898;9.184;2023-12-28T00:29:01;1.17;;;0.50;;
49842;SDS011;55559;48.898;9.184;2023-12-28T00:31:28;1.83;;;0.52;;
49842;SDS011;55559;48.898;9.184;2023-12-28T00:33:55;1.05;;;0.40;;
49842;SDS011;55559;48.898;9.184;2023-12-28T00:36:22;1.50;;;0.50;;
49842;SDS011;55559;48.898;9.184;2023-12-28T00:38:49;1.20;;;0.55;;
49842;SDS011;55559;48.898;9.184;2023-12-28T00:41:18;1.48;;;0.50;;
49842;SDS011;55559;48.898;9.184;2023-12-28T00:43:45;1.65;;;0.40;;
49842;SDS011;55559;48.898;9.184;2023-12-28T00:46:12;1.77;;;0.68;;
49842;SDS011;55559;48.898;9.184;2023-12-28T00:48:39;0.93;;;0.30;;
49842;SDS011;55559;48.898;9.184;2023-12-28T00:51:06;1.55;;;0.50;;
49842;SDS011;55559;48.898;9.184;2023-12-28T00:53:34;2.13;;;0.65;;
49842;SDS011;55559;48.898;9.184;2023-12-28T00:56:01;3.22;;;0.50;;
49842;SDS011;55559;48.898;9.184;2023-12-28T00:58:29;1.63;;;0.60;;
49842;SDS011;55559;48.898;9.184;2023-12-28T01:00:57;2.78;;;0.40;;
49842;SDS011;55559;48.898;9.184;2023-12-28T01:03:24;1.65;;;0.50;;
49842;SDS011;55559;48.898;9.184;2023-12-28T01:05:52;1.90;;;0.65;;
49842;SDS011;55559;48.898;9.184;2023-12-28T01:08:19;1.67;;;0.40;;
49842;SDS011;55559;48.898;9.184;2023-12-28T01:10:47;3.25;;;0.45;;
49842;SDS011;55559;48.898;9.184;2023-12-28T01:13:14;4.32;;;0.47;;
49842;SDS011;55559;48.898;9.184;2023-12-28T01:15:42;3.35;;;0.50;;
49842;SDS011;55559;48.898;9.184;2023-12-28T01:18:10;2.60;;;0.50;;
49842;SDS011;55559;48.898;9.184;2023-12-28T01:20:38;0.80;;;0.40;;
49842;SDS011;55559;48.898;9.184;2023-12-28T01:23:05;2.20;;;0.50;;
49842;SDS011;55559;48.898;9.184;2023-12-28T01:25:32;2.65;;;0.50;;
49842;SDS011;55559;48.898;9.184;2023-12-28T01:27:59;3.83;;;0.40;;
49842;SDS011;55559;48.898;9.184;2023-12-28T01:30:26;0.98;;;0.40;;
49842;SDS011;55559;48.898;9.184;2023-12-28T01:32:55;1.20;;;0.47;;
49842;SDS011;55559;48.898;9.184;2023-12-28T01:35:22;1.83;;;0.60;;
49842;SDS011;55559;48.898;9.184;2023-12-28T01:37:49;1.23;;;0.40;;
49842;SDS011;55559;48.898;9.184;2023-12-28T01:40:16;2.08;;;0.50;;
49842;SDS011;55559;48.898;9.184;2023-12-28T01:42:44;6.07;;;1.55;;
49842;SDS011;55559;48.898;9.184;2023-12-28T01:45:12;2.45;;;0.45;;
49842;SDS011;55559;48.898;9.184;2023-12-28T01:47:39;1.52;;;0.50;;
49842;SDS011;55559;48.898;9.184;2023-12-28T01:50:08;1.55;;;0.50;;
49842;SDS011;55559;48.898;9.184;2023-12-28T01:52:36;1.25;;;0.47;;
49842;SDS011;55559;48.898;9.184;2023-12-28T01:55:05;1.40;;;0.50;;
49842;SDS011;55559;48.898;9.184;2023-12-28T01:57:35;1.27;;;0.47;;
49842;SDS011;55559;48.898;9.184;2023-12-28T02:00:02;1.88;;;0.52;;
49842;SDS011;55559;48.898;9.184;2023-12-28T02:02:38;1.48;;;0.50;;
49842;SDS011;55559;48.898;9.184;2023-12-28T02:05:08;4.80;;;0.60;;
49842;SDS011;55559;48.898;9.184;2023-12-28T02:07:37;1.10;;;0.40;;
49842;SDS011;55559;48.898;9.184;2023-12-28T02:10:05;2.03;;;0.55;;
49842;SDS011;55559;48.898;9.184;2023-12-28T02:12:32;2.53;;;0.47;;
49842;SDS011;55559;48.898;9.184;2023-12-28T02:14:59;1.33;;;0.50;;
49842;SDS011;55559;48.898;9.184;2023-12-28T02:17:28;1.00;;;0.40;;
49842;SDS011;55559;48.898;9.184;2023-12-28T02:19:57;3.67;;;0.60;;
49842;SDS011;55559;48.898;9.184;2023-12-28T02:22:26;1.10;;;0.43;;
49842;SDS011;55559;48.898;9.184;2023-12-28T02:25:04;1.80;;;0.40;;
49842;SDS011;55559;48.898;9.184;2023-12-28T02:27:31;3.10;;;0.63;;
49842;SDS011;55559;48.898;9.184;2023-12-28T02:29:58;1.55;;;0.57;;
49842;SDS011;55559;48.898;9.184;2023-12-28T02:32:28;1.65;;;0.50;;
49842;SDS011;55559;48.898;9.184;2023-12-28T02:34:56;1.92;;;0.40;;
49842;SDS011;55559;48.898;9.184;2023-12-28T02:37:24;2.58;;;0.88;;
49842;SDS011;55559;48.898;9.184;2023-12-28T02:39:53;1.95;;;0.60;;
49842;SDS011;55559;48.898;9.184;2023-12-28T02:42:22;4.47;;;0.80;;
49842;SDS011;55559;48.898;9.184;2023-12-28T02:44:50;1.70;;;0.55;;
49842;SDS011;55559;48.898;9.184;2023-12-28T02:47:17;3.05;;;0.60;;
49842;SDS011;55559;48.898;9.184;2023-12-28T02:49:44;3.05;;;0.50;;
49842;SDS011;55559;48.898;9.184;2023-12-28T02:52:11;2.15;;;0.50;;
49842;SDS011;55559;48.898;9.184;2023-12-28T02:54:39;1.38;;;0.45;;
49842;SDS011;55559;48.898;9.184;2023-12-28T02:57:06;5.85;;;0.60;;
49842;SDS011;55559;48.898;9.184;2023-12-28T02:59:34;0.90;;;0.40;;
49842;SDS011;55559;48.898;9.184;2023-12-28T03:02:01;1.63;;;0.40;;
49842;SDS011;55559;48.898;9.184;2023-12-28T03:04:28;1.70;;;0.50;;
49842;SDS011;55559;48.898;9.184;2023-12-28T03:06:55;1.90;;;0.43;;
49842;SDS011;55559;48.898;9.184;2023-12-28T03:09:22;1.25;;;0.47;;
49842;SDS011;55559;48.898;9.184;2023-12-28T03:11:50;1.10;;;0.40;;
49842;SDS011;55559;48.898;9.184;2023-12-28T03:14:17;1.77;;;0.70;;
49842;SDS011;55559;48.898;9.184;2023-12-28T03:16:48;3.60;;;0.30;;
49842;SDS011;55559;48.898;9.184;2023-12-28T03:19:15;2.38;;;0.73;;
49842;SDS011;55559;48.898;9.184;2023-12-28T03:21:42;3.90;;;0.40;;
49842;SDS011;55559;48.898;9.184;2023-12-28T03:24:09;1.70;;;0.40;;
49842;SDS011;55559;48.898;9.184;2023-12-28T03:26:37;1.85;;;0.50;;
49842;SDS011;55559;48.898;9.184;2023-12-28T03:29:05;0.80;;;0.30;;
49842;SDS011;55559;48.898;9.184;2023-12-28T03:31:32;1.77;;;0.60;;
49842;SDS011;55559;48.898;9.184;2023-12-28T03:34:00;2.08;;;0.30;;
49842;SDS011;55559;48.898;9.184;2023-12-28T03:36:27;0.93;;;0.40;;
49842;SDS011;55559;48.898;9.184;2023-12-28T03:38:54;0.90;;;0.40;;
49842;SDS011;55559;48.898;9.184;2023-12-28T03:41:21;0.95;;;0.38;;
49842;SDS011;55559;48.898;9.184;2023-12-28T03:43:49;3.65;;;0.40;;
49842;SDS011;55559;48.898;9.184;2023-12-28T03:46:16;1.08;;;0.30;;
49842;SDS011;55559;48.898;9.184;2023-12-28T03:48:43;1.50;;;0.40;;
49842;SDS011;55559;48.898;9.184;2023-12-28T03:51:14;2.08;;;0.50;;
49842;SDS011;55559;48.898;9.184;2023-12-28T03:53:42;3.15;;;0.68;;
49842;SDS011;55559;48.898;9.184;2023-12-28T03:56:17;3.08;;;0.40;;
49842;SDS011;55559;48.898;9.184;2023-12-28T03:58:44;2.03;;;0.90;;
49842;SDS011;55559;48.898;9.184;2023-12-28T04:01:11;1.30;;;0.47;;
49842;SDS011;55559;48.898;9.184;2023-12-28T04:03:38;1.83;;;0.80;;
49842;SDS011;55559;48.898;9.184;2023-12-28T04:06:06;2.38;;;0.60;;
49842;SDS011;55559;48.898;9.184;2023-12-28T04:08:35;4.03;;;0.80;;
49842;SDS011;55559;48.898;9.184;2023-12-28T04:11:02;1.85;;;0.60;;
49842;SDS011;55559;48.898;9.184;2023-12-28T04:13:29;2.85;;;0.68;;
49842;SDS011;55559;48.898;9.184;2023-12-28T04:15:56;1.15;;;0.40;;
49842;SDS011;55559;48.898;9.184;2023-12-28T04:18:23;0.93;;;0.38;;
49842;SDS011;55559;48.898;9.184;2023-12-28T04:20:50;0.85;;;0.38;;
49842;SDS011;55559;48.898;9.184;2023-12-28T04:23:17;1.30;;;0.40;;
49842;SDS011;55559;48.898;9.184;2023-12-28T04:25:46;2.58;;;0.57;;
49842;SDS011;55559;48.898;9.184;2023-12-28T04:28:14;2.20;;;0.40;;
49842;SDS011;55559;48.898;9.184;2023-12-28T04:30:41;0.90;;;0.40;;
49842;SDS011;55559;48.898;9.184;2023-12-28T04:33:09;2.03;;;0.52;;
49842;SDS011;55559;48.898;9.184;2023-12-28T04:35:36;1.00;;;0.43;;
49842;SDS011;55559;48.898;9.184;2023-12-28T04:38:03;1.15;;;0.40;;
49842;SDS011;55559;48.898;9.184;2023-12-28T04:40:31;1.00;;;0.40;;
49842;SDS011;55559;48.898;9.184;2023-12-28T04:43:00;3.17;;;0.40;;
49842;SDS011;55559;48.898;9.184;2023-12-28T04:45:28;1.95;;;0.40;;
49842;SDS011;55559;48.898;9.184;2023-12-28T04:47:55;0.95;;;0.30;;
49842;SDS011;55559;48.898;9.184;2023-12-28T04:50:22;3.10;;;0.40;;
49842;SDS011;55559;48.898;9.184;2023-12-28T04:52:49;1.30;;;0.38;;
49842;SDS011;55559;48.898;9.184;2023-12-28T04:55:16;3.30;;;0.40;;
49842;SDS011;55559;48.898;9.184;2023-12-28T04:57:43;1.38;;;0.43;;
49842;SDS011;55559;48.898;9.184;2023-12-28T05:00:15;0.80;;;0.30;;
49842;SDS011;55559;48.898;9.184;2023-12-28T05:02:42;1.27;;;0.50;;
49842;SDS011;55559;48.898;9.184;2023-12-28T05:05:11;1.52;;;0.40;;
49842;SDS011;55559;48.898;9.184;2023-12-28T05:07:38;2.17;;;0.43;;
49842;SDS011;55559;48.898;9.184;2023-12-28T05:10:06;2.40;;;0.40;;
49842;SDS011;55559;48.898;9.184;2023-12-28T05:12:33;0.93;;;0.30;;
49842;SDS011;55559;48.898;9.184;2023-12-28T05:15:00;1.35;;;0.40;;
49842;SDS011;55559;48.898;9.184;2023-12-28T05:17:29;1.75;;;0.50;;
49842;SDS011;55559;48.898;9.184;2023-12-28T05:19:56;2.00;;;0.50;;
49842;SDS011;55559;48.898;9.184;2023-12-28T05:22:23;1.25;;;0.40;;
49842;SDS011;55559;48.898;9.184;2023-12-28T05:24:50;2.33;;;0.40;;
49842;SDS011;55559;48.898;9.184;2023-12-28T05:27:17;1.08;;;0.40;;
49842;SDS011;55559;48.898;9.184;2023-12-28T05:29:44;1.73;;;0.30;;
49842;SDS011;55559;48.898;9.184;2023-12-28T05:32:11;2.35;;;0.35;;
49842;SDS011;55559;48.898;9.184;2023-12-28T05:34:39;1.13;;;0.30;;
49842;SDS011;55559;48.898;9.184;2023-12-28T05:37:06;1.70;;;0.30;;
49842;SDS011;55559;48.898;9.184;2023-12-28T05:39:33;2.25;;;0.75;;
49842;SDS011;55559;48.898;9.184;2023-12-28T05:42:00;2.97;;;0.38;;
49842;SDS011;55559;48.898;9.184;2023-12-28T05:44:28;3.05;;;0.50;;
49842;SDS011;55559;48.898;9.184;2023-12-28T05:46:55;1.75;;;0.40;;
49842;SDS011;55559;48.898;9.184;2023-12-28T05:49:22;1.10;;;0.43;;
49842;SDS011;55559;48.898;9.184;2023-12-28T05:51:52;1.88;;;0.30;;
49842;SDS011;55559;48.898;9.184;2023-12-28T05:54:19;1.23;;;0.40;;
49842;SDS011;55559;48.898;9.184;2023-12-28T05:56:46;1.38;;;0.40;;
49842;SDS011;55559;48.898;9.184;2023-12-28T05:59:13;2.20;;;0.45;;
49842;SDS011;55559;48.898;9.184;2023-12-28T06:01:43;25.55;;;0.57;;
49842;SDS011;55559;48.898;9.184;2023-12-28T06:04:10;2.58;;;0.35;;
49842;SDS011;55559;48.898;9.184;2023-12-28T06:06:37;3.17;;;0.60;;
49842;SDS011;55559;48.898;9.184;2023-12-28T06:09:06;1.23;;;0.40;;
49842;SDS011;55559;48.898;9.184;2023-12-28T06:11:33;1.42;;;0.40;;
49842;SDS011;55559;48.898;9.184;2023-12-28T06:14:01;0.98;;;0.45;;
49842;SDS011;55559;48.898;9.184;2023-12-28T06:16:28;4.63;;;0.77;;
49842;SDS011;55559;48.898;9.184;2023-12-28T06:18:58;8.88;;;0.55;;
49842;SDS011;55559;48.898;9.184;2023-12-28T06:21:25;0.95;;;0.40;;
49842;SDS011;55559;48.898;9.184;2023-12-28T06:23:54;2.83;;;0.63;;
49842;SDS011;55559;48.898;9.184;2023-12-28T06:26:23;9.50;;;0.43;;
49842;SDS011;55559;48.898;9.184;2023-12-28T06:28:50;4.32;;;0.47;;
49842;SDS011;55559;48.898;9.184;2023-12-28T06:31:17;2.40;;;0.47;;
49842;SDS011;55559;48.898;9.184;2023-12-28T06:33:44;4.30;;;0.43;;
49842;SDS011;55559;48.898;9.184;2023-12-28T06:36:11;3.33;;;0.52;;
49842;SDS011;55559;48.898;9.184;2023-12-28T06:38:41;2.65;;;0.60;;
49842;SDS011;55559;48.898;9.184;2023-12-28T06:41:11;3.75;;;0.80;;
49842;SDS011;55559;48.898;9.184;2023-12-28T06:43:40;6.25;;;0.80;;
49842;SDS011;55559;48.898;9.184;2023-12-28T06:46:07;3.28;;;1.15;;
49842;SDS011;55559;48.898;9.184;2023-12-28T06:48:34;2.35;;;0.70;;
49842;SDS011;55559;48.898;9.184;2023-12-28T06:51:01;3.67;;;0.70;;
49842;SDS011;55559;48.898;9.184;2023-12-28T06:53:28;3.58;;;0.70;;
49842;SDS011;55559;48.898;9.184;2023-12-28T06:55:55;3.83;;;0.88;;
49842;SDS011;55559;48.898;9.184;2023-12-28T06:58:22;3.05;;;1.00;;
49842;SDS011;55559;48.898;9.184;2023-12-28T07:00:51;2.35;;;0.70;;
49842;SDS011;55559;48.898;9.184;2023-12-28T07:03:18;3.97;;;0.70;;
49842;SDS011;55559;48.898;9.184;2023-12-28T07:05:45;5.95;;;1.38;;
49842;SDS011;55559;48.898;9.184;2023-12-28T07:08:12;3.72;;;1.00;;
49842;SDS011;55559;48.898;9.184;2023-12-28T07:10:39;3.38;;;0.95;;
49842;SDS011;55559;48.898;9.184;2023-12-28T07:13:06;3.03;;;0.80;;
49842;SDS011;55559;48.898;9.184;2023-12-28T07:15:34;1.85;;;0.68;;
49842;SDS011;55559;48.898;9.184;2023-12-28T07:18:02;4.57;;;0.70;;
49842;SDS011;55559;48.898;9.184;2023-12-28T07:20:29;2.03;;;0.70;;
49842;SDS011;55559;48.898;9.184;2023-12-28T07:22:57;2.78;;;0.70;;
49842;SDS011;55559;48.898;9.184;2023-12-28T07:25:24;9.80;;;0.93;;
49842;SDS011;55559;48.898;9.184;2023-12-28T07:27:51;1.52;;;0.70;;
49842;SDS011;55559;48.898;9.184;2023-12-28T07:30:18;1.38;;;0.52;;
49842;SDS011;55559;48.898;9.184;2023-12-28T07:32:45;10.50;;;0.70;;
49842;SDS011;55559;48.898;9.184;2023-12-28T07:35:13;3.35;;;0.70;;
49842;SDS011;55559;48.898;9.184;2023-12-28T07:37:40;2.95;;;0.93;;
49842;SDS011;55559;48.898;9.184;2023-12-28T07:40:07;4.80;;;0.70;;
49842;SDS011;55559;48.898;9.184;2023-12-28T07:42:35;5.40;;;0.80;;
49842;SDS011;55559;48.898;9.184;2023-12-28T07:45:02;2.55;;;1.00;;
49842;SDS011;55559;48.898;9.184;2023-12-28T07:47:29;7.38;;;1.33;;
49842;SDS011;55559;48.898;9.184;2023-12-28T07:49:56;2.45;;;0.82;;
49842;SDS011;55559;48.898;9.184;2023-12-28T07:52:25;3.05;;;0.95;;
49842;SDS011;55559;48.898;9.184;2023-12-28T07:54:52;3.53;;;0.70;;
49842;SDS011;55559;48.898;9.184;2023-12-28T07:57:19;4.28;;;0.80;;
49842;SDS011;55559;48.898;9.184;2023-12-28T07:59:46;3.63;;;0.70;;
49842;SDS011;55559;48.898;9.184;2023-12-28T08:02:13;2.17;;;0.70;;
49842;SDS011;55559;48.898;9.184;2023-12-28T08:04:40;5.53;;;0.80;;
49842;SDS011;55559;48.898;9.184;2023-12-28T08:07:07;2.30;;;0.70;;
49842;SDS011;55559;48.898;9.184;2023-12-28T08:09:36;2.67;;;0.70;;
49842;SDS011;55559;48.898;9.184;2023-12-28T08:12:03;3.63;;;0.80;;
49842;SDS011;55559;48.898;9.184;2023-12-28T08:14:30;2.53;;;0.70;;
49842;SDS011;55559;48.898;9.184;2023-12-28T08:16:57;6.90;;;1.15;;
49842;SDS011;55559;48.898;9.184;2023-12-28T08:19:24;1.70;;;0.68;;
49842;SDS011;55559;48.898;9.184;2023-12-28T08:21:52;2.97;;;0.77;;
49842;SDS011;55559;48.898;9.184;2023-12-28T08:24:19;4.40;;;1.20;;
49842;SDS011;55559;48.898;9.184;2023-12-28T08:26:47;5.85;;;1.10;;
49842;SDS011;55559;48.898;9.184;2023-12-28T08:29:14;4.05;;;1.30;;
49842;SDS011;55559;48.898;9.184;2023-12-28T08:31:41;3.95;;;1.27;;
49842;SDS011;55559;48.898;9.184;2023-12-28T08:34:08;5.05;;;1.20;;
49842;SDS011;55559;48.898;9.184;2023-12-28T08:36:35;2.85;;;1.00;;
49842;SDS011;55559;48.898;9.184;2023-12-28T08:39:02;2.08;;;0.82;;
49842;SDS011;55559;48.898;9.184;2023-12-28T08:41:30;7.85;;;1.15;;
49842;SDS011;55559;48.898;9.184;2023-12-28T08:43:58;4.70;;;1.15;;
49842;SDS011;55559;48.898;9.184;2023-12-28T08:46:25;6.13;;;0.90;;
49842;SDS011;55559;48.898;9.184;2023-12-28T08:48:53;6.72;;;1.25;;
49842;SDS011;55559;48.898;9.184;2023-12-28T08:51:20;17.30;;;0.90;;
49842;SDS011;55559;48.898;9.184;2023-12-28T08:53:47;10.18;;;0.88;;
49842;SDS011;55559;48.898;9.184;2023-12-28T08:56:16;4.65;;;0.80;;
49842;SDS011;55559;48.898;9.184;2023-12-28T08:58:43;4.82;;;1.00;;
49842;SDS011;55559;48.898;9.184;2023-12-28T09:01:16;5.90;;;1.63;;
49842;SDS011;55559;48.898;9.184;2023-12-28T09:03:44;10.27;;;4.45;;
49842;SDS011;55559;48.898;9.184;2023-12-28T09:06:11;11.55;;;5.03;;
49842;SDS011;55559;48.898;9.184;2023-12-28T09:08:41;15.65;;;3.47;;
49842;SDS011;55559;48.898;9.184;2023-12-28T09:11:09;9.65;;;2.60;;
49842;SDS011;55559;48.898;9.184;2023-12-28T09:13:36;10.30;;;4.00;;
49842;SDS011;55559;48.898;9.184;2023-12-28T09:16:03;10.18;;;1.58;;
49842;SDS011;55559;48.898;9.184;2023-12-28T09:18:32;3.30;;;1.50;;
49842;SDS011;55559;48.898;9.184;2023-12-28T09:20:59;6.78;;;1.73;;
49842;SDS011;55559;48.898;9.184;2023-12-28T09:23:26;13.60;;;3.42;;
49842;SDS011;55559;48.898;9.184;2023-12-28T09:25:53;9.57;;;3.08;;
49842;SDS011;55559;48.898;9.184;2023-12-28T09:28:20;4.85;;;2.13;;
49842;SDS011;55559;48.898;9.184;2023-12-28T09:30:47;4.32;;;1.83;;
49842;SDS011;55559;48.898;9.184;2023-12-28T09:33:14;7.68;;;1.23;;
49842;SDS011;55559;48.898;9.184;2023-12-28T09:35:43;6.72;;;1.00;;
49842;SDS011;55559;48.898;9.184;2023-12-28T09:38:10;10.77;;;1.75;;
49842;SDS011;55559;48.898;9.184;2023-12-28T09:40:38;7.03;;;1.75;;
49842;SDS011;55559;48.898;9.184;2023-12-28T09:43:09;3.88;;;1.33;;
49842;SDS011;55559;48.898;9.184;2023-12-28T09:45:39;8.82;;;2.08;;
49842;SDS011;55559;48.898;9.184;2023-12-28T09:48:06;5.15;;;1.60;;
49842;SDS011;55559;48.898;9.184;2023-12-28T09:50:33;3.67;;;1.27;;
49842;SDS011;55559;48.898;9.184;2023-12-28T09:53:02;7.07;;;1.50;;
49842;SDS011;55559;48.898;9.184;2023-12-28T09:55:29;7.20;;;2.03;;
49842;SDS011;55559;48.898;9.184;2023-12-28T09:57:56;2.72;;;1.40;;
49842;SDS011;55559;48.898;9.184;2023-12-28T10:00:24;6.93;;;1.70;;
49842;SDS011;55559;48.898;9.184;2023-12-28T10:02:51;3.83;;;1.38;;
49842;SDS011;55559;48.898;9.184;2023-12-28T10:05:18;4.45;;;1.60;;
49842;SDS011;55559;48.898;9.184;2023-12-28T10:07:47;5.95;;;1.60;;
49842;SDS011;55559;48.898;9.184;2023-12-28T10:10:16;3.58;;;1.27;;
49842;SDS011;55559;48.898;9.184;2023-12-28T10:12:43;3.88;;;1.33;;
49842;SDS011;55559;48.898;9.184;2023-12-28T10:15:10;8.80;;;1.30;;
49842;SDS011;55559;48.898;9.184;2023-12-28T10:17:37;2.13;;;1.00;;
49842;SDS011;55559;48.898;9.184;2023-12-28T10:20:06;5.03;;;1.20;;
49842;SDS011;55559;48.898;9.184;2023-12-28T10:22:35;3.20;;;0.90;;
49842;SDS011;55559;48.898;9.184;2023-12-28T10:25:02;8.50;;;0.98;;
49842;SDS011;55559;48.898;9.184;2023-12-28T10:27:31;3.15;;;0.90;;
49842;SDS011;55559;48.898;9.184;2023-12-28T10:29:59;2.53;;;1.00;;
49842;SDS011;55559;48.898;9.184;2023-12-28T10:32:26;8.48;;;1.27;;
49842;SDS011;55559;48.898;9.184;2023-12-28T10:34:53;7.43;;;1.27;;
49842;SDS011;55559;48.898;9.184;2023-12-28T10:37:20;8.95;;;1.80;;
49842;SDS011;55559;48.898;9.184;2023-12-28T10:39:48;6.43;;;1.45;;
49842;SDS011;55559;48.898;9.184;2023-12-28T10:42:20;2.85;;;1.10;;
49842;SDS011;55559;48.898;9.184;2023-12-28T10:44:51;8.88;;;1.00;;
49842;SDS011;55559;48.898;9.184;2023-12-28T10:47:20;5.68;;;1.35;;
49842;SDS011;55559;48.898;9.184;2023-12-28T10:49:48;3.03;;;0.93;;
49842;SDS011;55559;48.898;9.184;2023-12-28T10:52:18;9.23;;;0.80;;
49842;SDS011;55559;48.898;9.184;2023-12-28T10:54:50;3.72;;;1.10;;
49842;SDS011;55559;48.898;9.184;2023-12-28T10:57:22;3.67;;;1.27;;
49842;SDS011;55559;48.898;9.184;2023-12-28T11:00:00;4.97;;;1.20;;
49842;SDS011;55559;48.898;9.184;2023-12-28T11:02:35;4.35;;;1.30;;
49842;SDS011;55559;48.898;9.184;2023-12-28T11:05:04;4.32;;;1.30;;
49842;SDS011;55559;48.898;9.184;2023-12-28T11:07:32;6.93;;;1.55;;
49842;SDS011;55559;48.898;9.184;2023-12-28T11:10:00;5.40;;;1.45;;
49842;SDS011;55559;48.898;9.184;2023-12-28T11:12:28;4.28;;;1.23;;
49842;SDS011;55559;48.898;9.184;2023-12-28T11:14:57;4.20;;;1.30;;
49842;SDS011;55559;48.898;9.184;2023-12-28T11:17:24;11.32;;;4.88;;
49842;SDS011;55559;48.898;9.184;2023-12-28T11:19:51;16.75;;;7.90;;
49842;SDS011;55559;48.898;9.184;2023-12-28T11:22:19;10.00;;;3.70;;
49842;SDS011;55559;48.898;9.184;2023-12-28T11:24:47;4.68;;;1.38;;
49842;SDS011;55559;48.898;9.184;2023-12-28T11:27:14;2.88;;;1.38;;
49842;SDS011;55559;48.898;9.184;2023-12-28T11:29:41;3.35;;;0.90;;
49842;SDS011;55559;48.898;9.184;2023-12-28T11:32:11;6.95;;;0.60;;
49842;SDS011;55559;48.898;9.184;2023-12-28T11:34:38;1.85;;;0.50;;
49842;SDS011;55559;48.898;9.184;2023-12-28T11:37:07;2.92;;;0.60;;
49842;SDS011;55559;48.898;9.184;2023-12-28T11:39:35;1.40;;;0.57;;
49842;SDS011;55559;48.898;9.184;2023-12-28T11:42:04;2.17;;;0.40;;
49842;SDS011;55559;48.898;9.184;2023-12-28T11:44:32;3.83;;;0.50;;
49842;SDS011;55559;48.898;9.184;2023-12-28T11:47:12;2.97;;;0.30;;
49842;SDS011;55559;48.898;9.184;2023-12-28T11:49:39;3.20;;;0.40;;
49842;SDS011;55559;48.898;9.184;2023-12-28T11:52:07;1.70;;;0.30;;
49842;SDS011;55559;48.898;9.184;2023-12-28T11:54:34;4.80;;;0.40;;
49842;SDS011;55559;48.898;9.184;2023-12-28T11:57:01;1.38;;;0.40;;
49842;SDS011;55559;48.898;9.184;2023-12-28T11:59:28;9.18;;;0.50;;
49842;SDS011;55559;48.898;9.184;2023-12-28T12:01:56;3.85;;;0.40;;
49842;SDS011;55559;48.898;9.184;2023-12-28T12:04:25;1.65;;;0.50;;
49842;SDS011;55559;48.898;9.184;2023-12-28T12:06:52;2.65;;;0.40;;
49842;SDS011;55559;48.898;9.184;2023-12-28T12:09:19;5.70;;;0.60;;
49842;SDS011;55559;48.898;9.184;2023-12-28T12:11:48;5.13;;;0.50;;
49842;SDS011;55559;48.898;9.184;2023-12-28T12:14:15;1.95;;;0.30;;
49842;SDS011;55559;48.898;9.184;2023-12-28T12:16:42;1.58;;;0.40;;
49842;SDS011;55559;48.898;9.184;2023-12-28T12:19:09;2.78;;;0.70;;
49842;SDS011;55559;48.898;9.184;2023-12-28T12:21:37;1.08;;;0.40;;
49842;SDS011;55559;48.898;9.184;2023-12-28T12:24:05;2.78;;;0.40;;
49842;SDS011;55559;48.898;9.184;2023-12-28T12:26:32;1.63;;;0.60;;
49842;SDS011;55559;48.898;9.184;2023-12-28T12:29:01;3.42;;;0.50;;
49842;SDS011;55559;48.898;9.184;2023-12-28T12:31:28;1.00;;;0.40;;
49842;SDS011;55559;48.898;9.184;2023-12-28T12:33:56;2.58;;;0.20;;
49842;SDS011;55559;48.898;9.184;2023-12-28T12:36:23;3.10;;;0.55;;
49842;SDS011;55559;48.898;9.184;2023-12-28T12:38:51;6.93;;;2.58;;
49842;SDS011;55559;48.898;9.184;2023-12-28T12:41:21;8.85;;;3.97;;
49842;SDS011;55559;48.898;9.184;2023-12-28T12:43:48;10.20;;;2.58;;
49842;SDS011;55559;48.898;9.184;2023-12-28T12:46:15;11.40;;;3.60;;
49842;SDS011;55559;48.898;9.184;2023-12-28T12:48:42;6.88;;;2.00;;
49842;SDS011;55559;48.898;9.184;2023-12-28T12:51:10;11.25;;;3.67;;
49842;SDS011;55559;48.898;9.184;2023-12-28T12:53:35;12.50;;;4.40;;
49842;SDS011;55559;48.898;9.184;2023-12-28T12:56:04;6.28;;;2.78;;
49842;SDS011;55559;48.898;9.184;2023-12-28T12:58:30;3.53;;;1.25;;
49842;SDS011;55559;48.898;9.184;2023-12-28T13:00:58;10.65;;;1.85;;
49842;SDS011;55559;48.898;9.184;2023-12-28T13:03:27;2.25;;;1.42;;
49842;SDS011;55559;48.898;9.184;2023-12-28T13:05:55;7.15;;;1.88;;
49842;SDS011;55559;48.898;9.184;2023-12-28T13:08:22;3.65;;;1.52;;
49842;SDS011;55559;48.898;9.184;2023-12-28T13:10:54;5.07;;;1.50;;
49842;SDS011;55559;48.898;9.184;2023-12-28T13:13:22;3.22;;;1.05;;
49842;SDS011;55559;48.898;9.184;2023-12-28T13:15:49;3.17;;;0.95;;
49842;SDS011;55559;48.898;9.184;2023-12-28T13:18:16;6.97;;;1.15;;
49842;SDS011;55559;48.898;9.184;2023-12-28T13:20:43;7.35;;;1.50;;
49842;SDS011;55559;48.898;9.184;2023-12-28T13:23:11;3.10;;;0.90;;
49842;SDS011;55559;48.898;9.184;2023-12-28T13:25:38;3.65;;;1.10;;
49842;SDS011;55559;48.898;9.184;2023-12-28T13:28:05;2.83;;;0.90;;
49842;SDS011;55559;48.898;9.184;2023-12-28T13:30:34;1.42;;;0.85;;
49842;SDS011;55559;48.898;9.184;2023-12-28T13:33:02;3.05;;;0.80;;
49842;SDS011;55559;48.898;9.184;2023-12-28T13:35:30;3.15;;;0.70;;
49842;SDS011;55559;48.898;9.184;2023-12-28T13:37:58;4.63;;;0.90;;
49842;SDS011;55559;48.898;9.184;2023-12-28T13:40:26;1.77;;;0.70;;
49842;SDS011;55559;48.898;9.184;2023-12-28T13:42:53;3.95;;;1.00;;
49842;SDS011;55559;48.898;9.184;2023-12-28T13:45:21;3.38;;;0.90;;
49842;SDS011;55559;48.898;9.184;2023-12-28T13:47:49;1.98;;;0.88;;
49842;SDS011;55559;48.898;9.184;2023-12-28T13:50:15;2.28;;;0.98;;
49842;SDS011;55559;48.898;9.184;2023-12-28T13:52:42;2.33;;;0.90;;
49842;SDS011;55559;48.898;9.184;2023-12-28T13:55:09;2.17;;;0.90;;
49842;SDS011;55559;48.898;9.184;2023-12-28T13:57:37;3.28;;;1.23;;
49842;SDS011;55559;48.898;9.184;2023-12-28T14:00:04;5.18;;;1.00;;
49842;SDS011;55559;48.898;9.184;2023-12-28T14:05:06;2.55;;;0.90;;
49842;SDS011;55559;48.898;9.184;2023-12-28T14:07:33;3.03;;;1.20;;
49842;SDS011;55559;48.898;9.184;2023-12-28T14:10:01;4.38;;;1.20;;
49842;SDS011;55559;48.898;9.184;2023-12-28T14:12:28;1.95;;;0.82;;
49842;SDS011;55559;48.898;9.184;2023-12-28T14:14:55;3.67;;;1.17;;
49842;SDS011;55559;48.898;9.184;2023-12-28T14:17:23;3.08;;;1.02;;
49842;SDS011;55559;48.898;9.184;2023-12-28T14:19:51;3.42;;;1.00;;
49842;SDS011;55559;48.898;9.184;2023-12-28T14:22:19;2.30;;;0.95;;
49842;SDS011;55559;48.898;9.184;2023-12-28T14:24:47;3.15;;;1.13;;
49842;SDS011;55559;48.898;9.184;2023-12-28T14:27:15;3.08;;;1.00;;
49842;SDS011;55559;48.898;9.184;2023-12-28T14:29:42;2.33;;;0.73;;
49842;SDS011;55559;48.898;9.184;2023-12-28T14:32:09;2.70;;;1.08;;
49842;SDS011;55559;48.898;9.184;2023-12-28T14:34:37;2.50;;;0.95;;
49842;SDS011;55559;48.898;9.184;2023-12-28T14:37:04;1.40;;;0.60;;
49842;SDS011;55559;48.898;9.184;2023-12-28T14:39:34;3.72;;;1.05;;
49842;SDS011;55559;48.898;9.184;2023-12-28T14:42:01;2.10;;;0.90;;
49842;SDS011;55559;48.898;9.184;2023-12-28T14:44:29;2.85;;;0.60;;
49842;SDS011;55559;48.898;9.184;2023-12-28T14:46:56;2.97;;;0.50;;
49842;SDS011;55559;48.898;9.184;2023-12-28T14:49:23;4.65;;;0.68;;
49842;SDS011;55559;48.898;9.184;2023-12-28T14:51:50;3.38;;;1.45;;
49842;SDS011;55559;48.898;9.184;2023-12-28T14:54:17;2.53;;;0.60;;